Time;durP1;ratioP1;P1;durP2;ratioP2;P2;SDS_P1;SDS_P2;PMS_P1;PMS_P2;Temp;Humidity;BMP_temperature;BMP_pressure;BME280_temperature;BME280_humidity;BME280_pressure;Samples;Min_cycle;Max_cycle;Signal;HPM_P1;HPM_P2
2022/12/11 00:00:53;;;;;;;8.70;8.50;;;0.40;99.90;;;;;;5095844;28;20286;-82
2022/12/11 00:03:22;;;;;;;9.10;8.80;;;0.40;99.90;;;;;;5096012;28;20238;-82
2022/12/11 00:05:50;;;;;;;9.00;8.70;;;0.50;99.90;;;;;;5096955;28;20218;-82
2022/12/11 00:08:19;;;;;;;8.77;8.57;;;0.50;99.90;;;;;;5097771;28;20306;-82
2022/12/11 00:10:49;;;;;;;9.03;8.77;;;0.50;99.90;;;;;;5097547;28;20218;-82
2022/12/11 00:13:17;;;;;;;9.00;8.70;;;0.40;99.90;;;;;;5097888;28;20222;-81
2022/12/11 00:15:47;;;;;;;9.20;8.90;;;0.40;99.90;;;;;;5096956;28;20268;-81
2022/12/11 00:18:16;;;;;;;9.30;9.00;;;0.30;99.90;;;;;;5096899;28;20233;-82
2022/12/11 00:20:54;;;;;;;9.13;8.83;;;0.20;99.90;;;;;;5097466;28;20265;-81
2022/12/11 00:23:23;;;;;;;9.20;8.90;;;0.10;99.90;;;;;;5096500;28;20278;-82
2022/12/11 00:25:53;;;;;;;9.13;8.83;;;0.00;99.90;;;;;;5096736;28;20298;-82
2022/12/11 00:28:25;;;;;;;9.17;8.87;;;0.00;99.90;;;;;;5094588;28;20249;-82
2022/12/11 00:30:53;;;;;;;9.10;8.80;;;0.00;99.90;;;;;;5092121;28;20369;-82
2022/12/11 00:33:21;;;;;;;9.23;8.93;;;-0.10;99.90;;;;;;5090478;28;20286;-81
2022/12/11 00:36:00;;;;;;;9.10;8.80;;;-0.20;99.90;;;;;;5090336;28;20276;-82
2022/12/11 00:38:29;;;;;;;9.10;8.80;;;-0.10;99.90;;;;;;5091537;28;20248;-81
2022/12/11 00:40:59;;;;;;;9.07;8.77;;;-0.10;99.90;;;;;;5091313;28;20245;-82
2022/12/11 00:43:31;;;;;;;9.23;8.93;;;-0.10;99.90;;;;;;5089426;28;20221;-82
2022/12/11 00:45:58;;;;;;;8.90;8.70;;;-0.10;99.90;;;;;;5089210;28;20249;-82
2022/12/11 00:48:27;;;;;;;8.70;8.50;;;-0.10;99.90;;;;;;5094299;28;20301;-82
2022/12/11 00:51:06;;;;;;;8.90;8.67;;;-0.20;99.90;;;;;;5098065;28;20225;-81
2022/12/11 00:53:36;;;;;;;8.77;8.57;;;-0.10;99.90;;;;;;5097520;28;20257;-82
2022/12/11 00:56:24;;;;;;;8.70;8.50;;;-0.20;99.90;;;;;;5114899;22;20248;-82
2022/12/11 00:59:27;;;;;;;8.90;8.70;;;-0.20;99.90;;;;;;5082702;28;20298;-82
2022/12/11 01:02:06;;;;;;;8.80;8.60;;;-0.20;99.90;;;;;;5092017;27;20220;-81
2022/12/11 01:04:43;;;;;;;8.70;8.50;;;-0.10;99.90;;;;;;5099161;27;20268;-81
2022/12/11 01:08:00;;;;;;;8.70;8.50;;;-0.10;99.90;;;;;;5091924;27;20268;-82
2022/12/11 01:10:55;;;;;;;8.70;8.50;;;-0.10;99.90;;;;;;5082915;28;20241;-82
2022/12/11 01:22:12;;;;;;;8.50;8.30;;;-0.10;99.90;;;;;;5083119;28;20246;-82
2022/12/11 01:28:04;;;;;;;8.70;8.50;;;-0.20;99.90;;;;;;5102646;27;20265;-82
2022/12/11 01:30:43;;;;;;;8.50;8.30;;;-0.30;99.90;;;;;;5084912;28;20240;-82
2022/12/11 01:33:21;;;;;;;8.60;8.40;;;-0.40;99.90;;;;;;5095139;27;20233;-82
2022/12/11 01:36:05;;;;;;;8.50;8.30;;;-0.50;99.90;;;;;;5084551;28;20289;-82
2022/12/11 01:38:41;;;;;;;8.63;8.43;;;-0.50;99.90;;;;;;5080166;28;20228;-82
2022/12/11 01:41:26;;;;;;;8.53;8.33;;;-0.60;99.90;;;;;;5082545;28;20257;-82
2022/12/11 01:45:12;;;;;;;8.60;8.40;;;-0.70;99.90;;;;;;5082508;28;20233;-82
2022/12/11 01:47:48;;;;;;;8.40;8.20;;;-0.70;99.90;;;;;;5067505;28;20308;-82
2022/12/11 01:50:28;;;;;;;8.43;8.23;;;-0.70;99.90;;;;;;5083848;28;20265;-82
2022/12/11 01:53:13;;;;;;;8.40;8.20;;;-0.70;99.90;;;;;;5082894;28;20237;-82
2022/12/11 01:56:19;;;;;;;8.30;8.10;;;-0.60;99.90;;;;;;5082480;28;20426;-82
2022/12/11 01:59:07;;;;;;;8.40;8.20;;;-0.70;99.90;;;;;;5083047;28;20256;-82
2022/12/11 02:02:10;;;;;;;8.23;8.03;;;-0.60;99.90;;;;;;5082042;28;20237;-82
2022/12/11 02:05:38;;;;;;;8.20;8.00;;;-0.60;99.90;;;;;;5081505;28;20244;-83
2022/12/11 02:08:43;;;;;;;8.30;8.10;;;-0.70;99.90;;;;;;4960202;28;20320;-83
2022/12/11 02:11:37;;;;;;;8.30;8.10;;;-0.60;99.90;;;;;;4993942;28;20279;-80
2022/12/11 02:17:12;;;;;;;8.23;8.03;;;-0.60;99.90;;;;;;5017968;28;20226;-81
2022/12/11 02:20:13;;;;;;;8.17;7.97;;;-0.60;99.90;;;;;;5077256;28;20264;-81
2022/12/11 02:23:08;;;;;;;8.20;8.00;;;-0.60;99.90;;;;;;5081027;28;20285;-80
2022/12/11 02:25:56;;;;;;;8.30;8.10;;;-0.50;99.90;;;;;;5081898;28;20253;-80
2022/12/11 02:29:00;;;;;;;8.13;7.93;;;-0.50;99.90;;;;;;5081386;28;20315;-80
2022/12/11 02:31:38;;;;;;;8.07;7.87;;;-0.40;99.90;;;;;;5079299;28;20237;-80
2022/12/11 02:34:31;;;;;;;8.00;7.80;;;-0.40;99.90;;;;;;5081477;28;20233;-80
2022/12/11 02:37:23;;;;;;;8.03;7.83;;;-0.40;99.90;;;;;;5081745;28;20222;-81
2022/12/11 02:40:26;;;;;;;7.90;7.70;;;-0.30;99.90;;;;;;5081993;28;20241;-80
2022/12/11 02:43:04;;;;;;;7.90;7.70;;;-0.30;99.90;;;;;;5081213;28;20236;-80
2022/12/11 02:48:47;;;;;;;8.13;7.93;;;-0.40;99.90;;;;;;5080441;28;20234;-80
2022/12/11 02:51:46;;;;;;;8.30;8.10;;;-0.50;99.90;;;;;;5080918;28;20229;-80
2022/12/11 03:03:54;;;;;;;8.27;8.07;;;-0.40;99.90;;;;;;5081236;28;20245;-80
2022/12/11 03:09:28;;;;;;;8.17;7.97;;;-0.50;99.90;;;;;;5085641;28;20213;-80
2022/12/11 03:18:18;;;;;;;8.40;8.20;;;-0.60;99.90;;;;;;5097353;27;20225;-79
2022/12/11 03:21:28;;;;;;;8.30;8.10;;;-0.70;99.90;;;;;;5100723;27;20252;-79
2022/12/11 03:24:22;;;;;;;8.37;8.17;;;-0.70;99.90;;;;;;5087282;28;20247;-80
2022/12/11 03:27:06;;;;;;;8.30;8.10;;;-0.60;99.90;;;;;;5083576;28;20949;-80
2022/12/11 03:30:00;;;;;;;8.57;8.37;;;-0.60;99.90;;;;;;5091189;28;20240;-80
2022/12/11 03:32:44;;;;;;;8.30;8.10;;;-0.50;99.90;;;;;;5083606;28;20222;-80
2022/12/11 03:35:47;;;;;;;8.63;8.43;;;-0.50;99.90;;;;;;5080793;28;20244;-81
2022/12/11 03:38:44;;;;;;;8.40;8.20;;;-0.50;99.90;;;;;;5084297;28;20236;-80
2022/12/11 03:41:31;;;;;;;8.40;8.20;;;-0.40;99.90;;;;;;5083142;28;20237;-80
2022/12/11 03:44:15;;;;;;;8.30;8.10;;;-0.50;99.90;;;;;;5083387;28;20230;-81
2022/12/11 03:46:59;;;;;;;8.23;8.03;;;-0.50;99.90;;;;;;5083732;28;20240;-80
2022/12/11 03:49:59;;;;;;;8.17;7.97;;;-0.50;99.90;;;;;;5085626;28;20240;-80
2022/12/11 03:52:42;;;;;;;8.20;8.00;;;-0.50;99.90;;;;;;5086695;28;20773;-81
2022/12/11 03:55:33;;;;;;;8.10;7.90;;;-0.50;99.90;;;;;;5092191;28;20233;-80
2022/12/11 03:58:08;;;;;;;8.30;8.10;;;-0.50;99.90;;;;;;5085636;28;20320;-80
2022/12/11 04:00:42;;;;;;;8.10;7.90;;;-0.50;99.90;;;;;;5084499;28;20243;-81
2022/12/11 04:03:23;;;;;;;8.03;7.83;;;-0.50;99.90;;;;;;5083450;28;20252;-83
2022/12/11 04:09:00;;;;;;;8.30;8.10;;;-0.60;99.90;;;;;;5080344;28;20781;-82
2022/12/11 04:11:38;;;;;;;8.40;8.20;;;-0.70;99.90;;;;;;5082548;28;20281;-80
2022/12/11 04:24:13;;;;;;;8.13;7.93;;;-0.70;99.90;;;;;;5083719;28;20214;-80
2022/12/11 04:26:13;;;;;;;8.40;8.20;;;-0.90;99.90;;;;;;5084114;28;20226;-81
2022/12/11 04:35:02;;;;;;;8.50;8.30;;;-0.90;99.90;;;;;;5082802;28;20230;-81
2022/12/11 04:40:37;;;;;;;8.10;7.90;;;-0.90;99.90;;;;;;5082623;28;20226;-80
2022/12/11 04:43:22;;;;;;;8.20;8.00;;;-0.90;99.90;;;;;;5083143;28;20218;-80
2022/12/11 04:46:04;;;;;;;8.30;8.10;;;-0.90;99.90;;;;;;5066028;28;20241;-80
2022/12/11 04:51:28;;;;;;;8.30;8.10;;;-1.00;99.90;;;;;;5078754;28;20308;-81
2022/12/11 04:54:04;;;;;;;8.40;8.20;;;-1.20;99.90;;;;;;5084483;28;20251;-80
2022/12/11 04:56:43;;;;;;;8.43;8.23;;;-1.20;99.90;;;;;;5083635;28;20243;-80
2022/12/11 04:59:29;;;;;;;8.10;7.90;;;-1.20;99.90;;;;;;5082734;28;20226;-80
2022/12/11 05:02:15;;;;;;;8.20;8.00;;;-1.10;99.90;;;;;;5083725;28;20263;-81
2022/12/11 05:05:04;;;;;;;8.40;8.20;;;-1.10;99.90;;;;;;5084362;28;20229;-81
2022/12/11 05:07:43;;;;;;;8.20;8.00;;;-1.00;99.90;;;;;;5079809;28;20238;-81
2022/12/11 05:10:21;;;;;;;8.10;7.90;;;-1.00;99.90;;;;;;5079629;28;20232;-81
2022/12/11 05:12:59;;;;;;;8.20;8.00;;;-0.90;99.90;;;;;;5080698;28;20295;-81
2022/12/11 05:15:30;;;;;;;8.07;7.87;;;-0.90;99.90;;;;;;5080779;28;20237;-81
2022/12/11 05:18:07;;;;;;;8.13;7.93;;;-0.90;99.90;;;;;;5080029;28;20225;-81
2022/12/11 05:20:44;;;;;;;8.10;7.90;;;-0.90;99.90;;;;;;5080537;28;20275;-80
2022/12/11 05:26:22;;;;;;;8.30;8.10;;;-0.90;99.90;;;;;;5079696;28;20235;-81
2022/12/11 05:29:04;;;;;;;8.10;7.90;;;-0.90;99.90;;;;;;5090325;28;20241;-81
2022/12/11 05:31:38;;;;;;;8.33;8.13;;;-0.90;99.90;;;;;;5079817;28;20318;-82
2022/12/11 05:34:14;;;;;;;8.20;8.00;;;-0.90;99.90;;;;;;5079604;28;20234;-81
2022/12/11 05:37:03;;;;;;;8.10;7.90;;;-0.80;99.90;;;;;;5078445;28;20228;-81
2022/12/11 05:39:34;;;;;;;8.50;8.30;;;-0.80;99.90;;;;;;5078176;28;20237;-82
2022/12/11 05:42:25;;;;;;;8.40;8.20;;;-0.90;99.90;;;;;;5077797;28;20263;-82
2022/12/11 05:45:11;;;;;;;8.30;8.10;;;-0.90;99.90;;;;;;5096827;27;20217;-80
2022/12/11 05:48:01;;;;;;;8.13;7.93;;;-1.00;99.90;;;;;;5099214;27;20213;-81
2022/12/11 05:51:16;;;;;;;8.03;7.83;;;-1.00;99.90;;;;;;5088613;27;20230;-81
2022/12/11 05:56:56;;;;;;;8.40;8.20;;;-1.10;99.90;;;;;;5094090;28;20257;-82
2022/12/11 06:02:26;;;;;;;8.50;8.30;;;-1.10;99.90;;;;;;5087182;28;20254;-82
2022/12/11 06:05:09;;;;;;;8.40;8.20;;;-1.20;99.90;;;;;;5084841;28;20323;-82
2022/12/11 06:07:58;;;;;;;8.40;8.20;;;-1.20;99.90;;;;;;5084263;28;20292;-82
2022/12/11 06:13:50;;;;;;;8.40;8.20;;;-1.20;99.90;;;;;;5080715;28;20240;-82
2022/12/11 06:16:29;;;;;;;8.40;8.20;;;-1.20;99.90;;;;;;5083661;28;20266;-82
2022/12/11 06:19:08;;;;;;;8.40;8.20;;;-1.30;99.90;;;;;;5083268;28;20317;-82
2022/12/11 06:21:52;;;;;;;8.40;8.20;;;-1.30;99.90;;;;;;5083209;28;20232;-82
2022/12/11 06:34:00;;;;;;;8.20;8.00;;;-1.50;99.90;;;;;;5057777;28;20223;-82
2022/12/11 06:36:57;;;;;;;8.20;8.00;;;-1.50;99.90;;;;;;5082562;28;20312;-82
2022/12/11 06:46:34;;;;;;;8.80;8.60;;;-1.60;99.90;;;;;;5086449;28;20230;-82
2022/12/11 06:54:56;;;;;;;8.77;8.57;;;-1.70;99.90;;;;;;5118285;22;20239;-83
2022/12/11 06:57:28;;;;;;;8.70;8.50;;;-1.80;99.90;;;;;;5083937;28;20265;-82
2022/12/11 06:59:57;;;;;;;8.77;8.57;;;-1.80;99.90;;;;;;5083853;28;20245;-82
2022/12/11 07:02:26;;;;;;;8.87;8.67;;;-1.80;99.90;;;;;;5083318;28;20240;-82
2022/12/11 07:04:55;;;;;;;8.80;8.60;;;-1.80;99.90;;;;;;5083835;28;20317;-82
2022/12/11 07:07:25;;;;;;;8.73;8.53;;;-1.90;99.90;;;;;;5083517;28;20312;-82
2022/12/11 07:09:55;;;;;;;8.60;8.40;;;-1.90;99.90;;;;;;5083437;28;20233;-82
2022/12/11 07:12:26;;;;;;;9.10;8.80;;;-1.90;99.90;;;;;;5083530;28;20268;-82
2022/12/11 07:14:54;;;;;;;9.20;8.90;;;-2.10;99.90;;;;;;5084119;28;20234;-82
2022/12/11 07:17:22;;;;;;;8.83;8.63;;;-2.20;99.90;;;;;;5084057;28;20248;-82
2022/12/11 07:19:52;;;;;;;9.00;8.70;;;-2.30;99.90;;;;;;5084716;28;20780;-82
2022/12/11 07:22:21;;;;;;;8.53;8.33;;;-2.30;99.90;;;;;;5083922;28;20305;-82
2022/12/11 07:24:54;;;;;;;8.60;8.40;;;-2.30;99.90;;;;;;5083446;28;20243;-82
2022/12/11 07:27:23;;;;;;;8.57;8.37;;;-2.20;99.90;;;;;;5084068;28;20249;-82
2022/12/11 07:29:51;;;;;;;8.60;8.40;;;-2.20;99.90;;;;;;5083698;28;20296;-82
2022/12/11 07:32:19;;;;;;;8.40;8.20;;;-2.20;99.90;;;;;;5084109;28;20260;-82
2022/12/11 07:34:50;;;;;;;8.13;7.93;;;-2.20;99.90;;;;;;5085426;28;20231;-82
2022/12/11 07:37:18;;;;;;;8.27;8.07;;;-2.10;99.90;;;;;;5085523;28;20225;-82
2022/12/11 07:39:50;;;;;;;8.27;8.07;;;-2.10;99.90;;;;;;5085054;28;20227;-82
2022/12/11 07:42:17;;;;;;;8.60;8.40;;;-2.00;99.90;;;;;;5085175;28;20299;-82
2022/12/11 07:44:49;;;;;;;8.40;8.20;;;-2.00;99.90;;;;;;5096168;28;20233;-82
2022/12/11 07:47:16;;;;;;;8.53;8.33;;;-2.00;99.90;;;;;;5088217;28;20234;-82
2022/12/11 07:49:45;;;;;;;8.57;8.37;;;-2.00;99.90;;;;;;5085358;28;20241;-82
2022/12/11 07:52:15;;;;;;;8.67;8.47;;;-1.90;99.90;;;;;;5085182;28;20237;-82
2022/12/11 07:54:48;;;;;;;8.60;8.40;;;-1.90;99.90;;;;;;5084513;28;20271;-82
2022/12/11 07:57:15;;;;;;;8.67;8.47;;;-1.80;99.90;;;;;;5084620;28;20227;-82
2022/12/11 07:59:48;;;;;;;8.73;8.53;;;-1.70;99.90;;;;;;5084904;28;20236;-82
2022/12/11 08:02:17;;;;;;;9.00;8.70;;;-1.70;99.90;;;;;;5083808;28;20247;-82
2022/12/11 08:04:44;;;;;;;9.20;8.90;;;-1.60;99.90;;;;;;5083652;28;20331;-82
2022/12/11 08:07:13;;;;;;;9.17;8.87;;;-1.60;99.90;;;;;;5083919;28;20217;-82
2022/12/11 08:09:45;;;;;;;9.10;8.80;;;-1.50;99.90;;;;;;5084064;28;20228;-82
2022/12/11 08:12:13;;;;;;;9.23;8.93;;;-1.50;99.90;;;;;;5083714;28;20245;-82
2022/12/11 08:14:41;;;;;;;9.13;8.83;;;-1.50;99.90;;;;;;5083531;28;20241;-82
2022/12/11 08:17:14;;;;;;;9.30;9.00;;;-1.50;99.90;;;;;;5083607;28;20237;-81
2022/12/11 08:19:43;;;;;;;9.03;8.73;;;-1.50;99.90;;;;;;5083801;28;20233;-82
2022/12/11 08:22:10;;;;;;;9.20;8.90;;;-1.30;99.90;;;;;;5082861;28;20252;-82
2022/12/11 08:24:40;;;;;;;9.10;8.80;;;-1.20;99.90;;;;;;5084443;28;20252;-82
2022/12/11 08:27:09;;;;;;;9.30;9.00;;;-1.00;99.90;;;;;;5085026;28;20256;-82
2022/12/11 08:29:38;;;;;;;9.40;9.10;;;-1.00;99.90;;;;;;5091731;28;20237;-82
2022/12/11 08:32:12;;;;;;;9.17;8.87;;;-0.90;99.90;;;;;;5090525;28;20271;-82
2022/12/11 08:34:40;;;;;;;9.20;8.90;;;-0.80;99.90;;;;;;5085117;28;20278;-82
2022/12/11 08:37:09;;;;;;;9.17;8.87;;;-0.80;99.90;;;;;;5087348;28;20212;-82
2022/12/11 08:39:36;;;;;;;9.13;8.83;;;-0.80;99.90;;;;;;5084797;28;20260;-82
2022/12/11 08:42:05;;;;;;;9.20;8.90;;;-0.80;99.90;;;;;;5083978;28;20233;-82
2022/12/11 08:44:37;;;;;;;9.13;8.83;;;-0.80;99.90;;;;;;5083328;28;20236;-82
2022/12/11 08:47:05;;;;;;;9.10;8.80;;;-0.90;99.90;;;;;;5083293;28;20234;-82
2022/12/11 08:49:33;;;;;;;9.17;8.87;;;-0.80;99.90;;;;;;5084047;28;20357;-82
2022/12/11 08:52:03;;;;;;;9.13;8.83;;;-0.80;99.90;;;;;;5083403;28;20245;-82
2022/12/11 08:54:41;;;;;;;9.10;8.80;;;-0.80;99.90;;;;;;5083382;28;20240;-82
2022/12/11 08:57:13;;;;;;;9.10;8.80;;;-0.80;99.90;;;;;;5083695;28;20327;-82
2022/12/11 08:59:41;;;;;;;8.80;8.60;;;-0.80;99.90;;;;;;5083360;28;20245;-82
2022/12/11 09:02:12;;;;;;;9.10;8.80;;;-0.80;99.90;;;;;;5083431;28;20238;-82
2022/12/11 09:04:40;;;;;;;9.00;8.70;;;-0.90;99.90;;;;;;5084527;28;20251;-82
2022/12/11 09:07:08;;;;;;;8.80;8.60;;;-0.90;99.90;;;;;;5085267;28;20236;-82
2022/12/11 09:09:47;;;;;;;8.80;8.60;;;-0.90;99.90;;;;;;5084595;28;20256;-82
2022/12/11 09:12:19;;;;;;;9.00;8.70;;;-0.90;99.90;;;;;;5083886;28;20226;-82
2022/12/11 09:14:46;;;;;;;8.73;8.53;;;-0.80;99.90;;;;;;5083230;28;20242;-82
2022/12/11 09:17:16;;;;;;;9.03;8.73;;;-0.70;99.90;;;;;;5082474;28;20244;-82
2022/12/11 09:19:45;;;;;;;9.40;9.10;;;-0.70;99.90;;;;;;5082629;28;20725;-82
2022/12/11 09:22:15;;;;;;;9.03;8.73;;;-0.60;99.90;;;;;;5092528;28;20312;-81
2022/12/11 09:24:46;;;;;;;8.90;8.63;;;-0.60;99.90;;;;;;5097356;28;20237;-82
2022/12/11 09:27:14;;;;;;;9.20;8.90;;;-0.50;99.90;;;;;;5082454;28;20217;-82
2022/12/11 09:29:43;;;;;;;9.40;9.10;;;-0.50;99.90;;;;;;5082345;28;20232;-82
2022/12/11 09:32:12;;;;;;;9.20;8.90;;;-0.50;99.90;;;;;;5082737;28;20297;-81
2022/12/11 09:34:42;;;;;;;9.40;9.10;;;-0.60;99.90;;;;;;5085881;28;20323;-82
2022/12/11 09:37:10;;;;;;;9.13;8.83;;;-0.60;99.90;;;;;;5084849;28;20311;-82
2022/12/11 09:39:43;;;;;;;9.30;9.00;;;-0.60;99.90;;;;;;5084697;28;20279;-82
2022/12/11 09:42:19;;;;;;;8.70;8.50;;;-0.50;99.90;;;;;;5085645;28;20234;-82
2022/12/11 09:44:51;;;;;;;9.20;8.90;;;-0.60;99.90;;;;;;5085497;28;20267;-82
2022/12/11 09:47:35;;;;;;;8.87;8.67;;;-0.60;99.90;;;;;;5085341;28;20229;-82
2022/12/11 09:50:14;;;;;;;9.07;8.77;;;-0.60;99.90;;;;;;5085724;28;20235;-82
2022/12/11 09:53:03;;;;;;;9.40;9.10;;;-0.60;99.90;;;;;;5093475;28;20293;-82
2022/12/11 09:55:40;;;;;;;9.23;8.93;;;-0.60;99.90;;;;;;5092210;28;20336;-82
2022/12/11 09:58:28;;;;;;;9.17;8.87;;;-0.60;99.90;;;;;;5088238;28;20218;-82
2022/12/11 10:01:05;;;;;;;9.10;8.80;;;-0.70;99.90;;;;;;5088026;28;20270;-82
2022/12/11 10:03:52;;;;;;;8.97;8.70;;;-0.60;99.90;;;;;;5086650;28;20270;-82
2022/12/11 10:06:30;;;;;;;9.30;9.00;;;-0.50;99.90;;;;;;5086293;28;20260;-82
2022/12/11 10:09:08;;;;;;;9.30;9.00;;;-0.50;99.90;;;;;;5086011;28;20229;-82
2022/12/11 10:11:58;;;;;;;9.07;8.77;;;-0.40;99.90;;;;;;5085537;28;20309;-82
2022/12/11 10:14:43;;;;;;;9.30;9.00;;;-0.30;99.90;;;;;;5085572;28;20241;-83
2022/12/11 10:17:22;;;;;;;9.13;8.83;;;-0.40;99.90;;;;;;5085079;28;20271;-82
2022/12/11 10:19:51;;;;;;;9.20;8.90;;;-0.40;99.90;;;;;;5088344;28;20305;-82
2022/12/11 10:22:22;;;;;;;9.13;8.83;;;-0.50;99.90;;;;;;5086307;28;20234;-82
2022/12/11 10:24:58;;;;;;;9.03;8.73;;;-0.50;99.90;;;;;;5086138;28;20241;-81
2022/12/11 10:27:31;;;;;;;8.80;8.60;;;-0.40;99.90;;;;;;5085627;28;20225;-82
2022/12/11 10:30:15;;;;;;;9.20;8.90;;;-0.30;99.90;;;;;;5086076;28;20701;-82
2022/12/11 10:32:55;;;;;;;9.30;9.00;;;-0.20;99.90;;;;;;5086475;28;20513;-82
2022/12/11 10:35:40;;;;;;;9.00;8.70;;;-0.20;99.90;;;;;;5087447;28;20242;-82
2022/12/11 10:38:15;;;;;;;9.00;8.70;;;-0.20;99.90;;;;;;5087044;28;20222;-82
2022/12/11 10:40:48;;;;;;;9.17;8.87;;;-0.10;99.90;;;;;;5087327;28;20222;-81
2022/12/11 10:43:17;;;;;;;8.90;8.67;;;-0.20;99.90;;;;;;5087317;28;20239;-82
2022/12/11 10:45:55;;;;;;;9.23;8.93;;;-0.20;99.90;;;;;;5086481;28;20276;-82
2022/12/11 10:48:27;;;;;;;9.50;9.20;;;-0.30;99.90;;;;;;5088423;28;20241;-81
2022/12/11 10:51:05;;;;;;;9.20;8.90;;;-0.30;99.90;;;;;;5086879;28;20320;-81
2022/12/11 10:53:34;;;;;;;9.40;9.10;;;-0.30;99.90;;;;;;5086510;28;20237;-81
2022/12/11 10:56:03;;;;;;;9.37;9.07;;;-0.20;99.90;;;;;;5086142;28;20248;-81
2022/12/11 10:58:33;;;;;;;9.30;9.00;;;-0.20;99.90;;;;;;5085777;28;20244;-81
2022/12/11 11:01:09;;;;;;;9.20;8.90;;;-0.20;99.90;;;;;;5086879;28;20241;-81
2022/12/11 11:03:57;;;;;;;9.37;9.07;;;-0.30;99.90;;;;;;5086149;28;20238;-82
2022/12/11 11:06:26;;;;;;;9.43;9.13;;;-0.30;99.90;;;;;;5085206;28;20240;-81
2022/12/11 11:08:57;;;;;;;9.20;8.90;;;-0.20;99.90;;;;;;5085833;28;20237;-81
2022/12/11 11:11:34;;;;;;;9.30;9.00;;;-0.20;99.90;;;;;;5086234;28;20225;-81
2022/12/11 11:14:22;;;;;;;9.20;8.90;;;-0.20;99.90;;;;;;5093023;28;20232;-80
2022/12/11 11:17:07;;;;;;;9.40;9.10;;;-0.20;99.90;;;;;;5092893;28;20358;-80
2022/12/11 11:19:37;;;;;;;9.43;9.13;;;-0.40;99.90;;;;;;5092023;28;20230;-81
2022/12/11 11:22:10;;;;;;;9.20;8.90;;;-0.40;99.90;;;;;;5087556;28;20232;-81
2022/12/11 11:24:45;;;;;;;9.23;8.93;;;-0.40;99.90;;;;;;5087008;28;21071;-81
2022/12/11 11:27:23;;;;;;;9.27;8.97;;;-0.40;99.90;;;;;;5086204;28;20252;-81
2022/12/11 11:29:54;;;;;;;9.30;9.00;;;-0.50;99.90;;;;;;5085271;28;20331;-81
2022/12/11 11:32:32;;;;;;;9.10;8.80;;;-0.60;99.90;;;;;;5085512;28;20323;-81
2022/12/11 11:35:18;;;;;;;9.23;8.93;;;-0.70;99.90;;;;;;5086026;28;20241;-81
2022/12/11 11:37:56;;;;;;;9.07;8.77;;;-0.60;99.90;;;;;;5085616;28;20233;-81
2022/12/11 11:40:29;;;;;;;9.20;8.90;;;-0.60;99.90;;;;;;5084961;28;20240;-81
2022/12/11 11:43:12;;;;;;;9.30;9.00;;;-0.60;99.90;;;;;;5084329;28;20229;-81
2022/12/11 11:48:39;;;;;;;8.80;8.60;;;-0.60;99.90;;;;;;5084216;28;20260;-81
2022/12/11 11:51:16;;;;;;;9.30;9.00;;;-0.70;99.90;;;;;;5084374;28;20229;-81
2022/12/11 11:53:54;;;;;;;9.33;9.03;;;-0.80;99.90;;;;;;5084432;28;20259;-81
2022/12/11 11:56:26;;;;;;;8.77;8.57;;;-0.80;99.90;;;;;;5082877;28;20279;-80
2022/12/11 11:59:03;;;;;;;8.83;8.63;;;-0.70;99.90;;;;;;5092607;28;20267;-81
2022/12/11 12:01:33;;;;;;;8.90;8.70;;;-0.60;99.90;;;;;;5091531;28;20249;-81
2022/12/11 12:04:05;;;;;;;9.50;9.20;;;-0.60;99.90;;;;;;5085805;28;20238;-81
2022/12/11 12:07:07;;;;;;;9.40;9.10;;;-0.50;99.90;;;;;;5084008;28;20238;-81
2022/12/11 12:09:47;;;;;;;9.27;8.97;;;-0.50;99.90;;;;;;5081145;28;20287;-81
2022/12/11 12:12:32;;;;;;;9.00;8.73;;;-0.60;99.90;;;;;;5083736;28;20342;-81
2022/12/11 12:15:19;;;;;;;9.17;8.87;;;-0.60;99.90;;;;;;5084050;28;20273;-81
2022/12/11 12:17:59;;;;;;;8.90;8.70;;;-0.50;99.90;;;;;;5083678;28;20780;-83
2022/12/11 12:20:46;;;;;;;9.20;8.90;;;-0.50;99.90;;;;;;5083967;28;20260;-81
2022/12/11 12:23:43;;;;;;;9.23;8.93;;;-0.50;99.90;;;;;;5084383;28;20323;-81
2022/12/11 12:26:20;;;;;;;9.20;8.90;;;-0.60;99.90;;;;;;5075610;28;20316;-81
2022/12/11 12:29:06;;;;;;;9.50;9.20;;;-0.60;99.90;;;;;;5084718;28;20228;-81
2022/12/11 12:31:54;;;;;;;9.30;9.00;;;-0.70;99.90;;;;;;5083891;28;20257;-81
2022/12/11 12:34:41;;;;;;;9.20;8.90;;;-0.90;99.90;;;;;;5083396;28;20239;-81
2022/12/11 12:37:28;;;;;;;9.37;9.07;;;-0.90;99.90;;;;;;5082593;28;20216;-81
2022/12/11 12:40:08;;;;;;;8.87;8.67;;;-0.80;99.90;;;;;;5082995;28;20237;-81
2022/12/11 12:42:44;;;;;;;8.97;8.77;;;-0.70;99.90;;;;;;5083876;28;20267;-81
2022/12/11 12:45:30;;;;;;;9.23;8.93;;;-0.50;99.90;;;;;;5082599;28;20255;-81
2022/12/11 12:47:59;;;;;;;8.90;8.70;;;-0.30;99.90;;;;;;5083359;28;20226;-81
2022/12/11 12:50:38;;;;;;;8.93;8.73;;;-0.20;99.90;;;;;;5083478;28;20235;-81
2022/12/11 12:53:18;;;;;;;8.97;8.73;;;0.00;99.90;;;;;;5083522;28;20222;-81
2022/12/11 12:56:15;;;;;;;9.30;9.00;;;0.30;99.90;;;;;;5104890;22;20229;-81
2022/12/11 13:02:39;;;;;;;9.20;8.90;;;0.40;99.90;;;;;;5079626;28;20202;-81
2022/12/11 13:08:30;;;;;;;9.50;9.20;;;0.20;99.90;;;;;;5057501;28;20221;-81
2022/12/11 13:11:28;;;;;;;9.33;9.03;;;0.10;99.90;;;;;;5096842;27;20225;-79
2022/12/11 13:14:17;;;;;;;9.10;8.80;;;0.20;99.90;;;;;;5099685;27;20210;-79
2022/12/11 13:16:55;;;;;;;9.30;9.00;;;0.20;99.90;;;;;;5099367;27;20210;-80
2022/12/11 13:19:41;;;;;;;9.30;9.00;;;0.20;99.90;;;;;;5088547;28;20235;-81
2022/12/11 13:22:32;;;;;;;9.30;9.00;;;0.20;99.90;;;;;;5084834;28;20236;-81
2022/12/11 13:32:15;;;;;;;9.13;8.83;;;0.20;99.90;;;;;;5085417;28;20233;-81
2022/12/11 13:34:55;;;;;;;9.07;8.83;;;0.00;99.90;;;;;;5085447;28;20217;-81
2022/12/11 13:37:50;;;;;;;9.20;8.90;;;0.00;99.90;;;;;;5083972;28;20248;-80
2022/12/11 13:41:04;;;;;;;8.90;8.70;;;0.00;99.90;;;;;;5083625;28;20293;-81
2022/12/11 13:44:16;;;;;;;8.87;8.67;;;0.10;99.90;;;;;;5082757;28;20236;-81
2022/12/11 13:47:01;;;;;;;9.00;8.80;;;0.10;99.90;;;;;;5052421;28;20233;-80
2022/12/11 13:49:34;;;;;;;8.90;8.70;;;0.00;99.90;;;;;;5077174;28;20226;-80
2022/12/11 13:52:34;;;;;;;8.90;8.70;;;-0.10;99.90;;;;;;5078292;28;20226;-80
2022/12/11 13:55:44;;;;;;;9.03;8.83;;;-0.20;99.90;;;;;;5051266;28;20245;-80
2022/12/11 14:02:12;;;;;;;8.70;8.50;;;-0.30;99.90;;;;;;5091774;28;20256;-81
2022/12/11 14:05:06;;;;;;;8.77;8.57;;;-0.40;99.90;;;;;;5082748;28;20291;-81
2022/12/11 14:11:44;;;;;;;8.70;8.50;;;-0.70;99.90;;;;;;5078213;28;20326;-80
2022/12/11 14:17:34;;;;;;;8.87;8.67;;;-0.80;99.90;;;;;;5074319;28;20236;-81
2022/12/11 14:23:21;;;;;;;9.03;8.83;;;-1.00;99.90;;;;;;5080195;28;20228;-81
2022/12/11 14:26:17;;;;;;;9.37;9.07;;;-1.00;99.90;;;;;;5080865;28;20338;-81
2022/12/11 14:29:00;;;;;;;9.20;8.90;;;-1.10;99.90;;;;;;5080496;28;20233;-81
2022/12/11 14:32:02;;;;;;;8.90;8.70;;;-1.10;99.90;;;;;;5081622;28;20228;-81
2022/12/11 14:34:50;;;;;;;8.97;8.77;;;-1.10;99.90;;;;;;5082520;28;20289;-80
2022/12/11 14:38:08;;;;;;;9.20;8.90;;;-1.10;99.90;;;;;;5081869;28;20237;-81
2022/12/11 14:51:13;;;;;;;8.90;8.70;;;-1.30;99.90;;;;;;5082517;28;20228;-81
2022/12/11 15:11:10;;;;;;;9.40;9.10;;;-1.40;99.90;;;;;;5071664;28;20297;-81
2022/12/11 15:13:57;;;;;;;9.17;8.87;;;-1.40;99.90;;;;;;5080936;28;20317;-81
2022/12/11 15:16:37;;;;;;;9.10;8.80;;;-1.40;99.90;;;;;;5080151;28;20327;-81
2022/12/11 15:19:46;;;;;;;9.17;8.87;;;-1.40;99.90;;;;;;5080346;28;20259;-81
2022/12/11 15:22:25;;;;;;;8.80;8.60;;;-1.40;99.90;;;;;;5080465;28;20228;-81
2022/12/11 15:25:08;;;;;;;8.73;8.53;;;-1.40;99.90;;;;;;5083442;28;20555;-80
2022/12/11 15:27:48;;;;;;;8.93;8.70;;;-1.40;99.90;;;;;;5098131;28;20213;-79
2022/12/11 15:30:36;;;;;;;9.20;8.90;;;-1.50;99.90;;;;;;5097892;28;20235;-80
2022/12/11 15:33:29;;;;;;;9.10;8.80;;;-1.50;99.90;;;;;;5090846;28;20274;-80
2022/12/11 15:36:34;;;;;;;8.90;8.70;;;-1.50;99.90;;;;;;5088705;28;20234;-80
2022/12/11 15:43:09;;;;;;;9.40;9.10;;;-1.50;99.90;;;;;;5099487;27;20239;-79
2022/12/11 15:48:55;;;;;;;9.10;8.80;;;-1.60;99.90;;;;;;5094438;27;20239;-80
2022/12/11 15:51:39;;;;;;;9.40;9.10;;;-1.60;99.90;;;;;;5078281;28;20229;-80
2022/12/11 16:00:18;;;;;;;9.50;9.20;;;-1.70;99.90;;;;;;5082372;28;20210;-80
2022/12/11 16:03:02;;;;;;;9.40;9.10;;;-1.80;99.90;;;;;;5082274;28;20226;-80
2022/12/11 16:05:42;;;;;;;9.30;9.00;;;-1.80;99.90;;;;;;5088035;28;20271;-80
2022/12/11 16:17:36;;;;;;;9.30;9.00;;;-1.80;99.90;;;;;;5079953;28;20221;-82
2022/12/11 16:24:16;;;;;;;9.30;9.00;;;-1.80;99.90;;;;;;5077527;28;20228;-82
2022/12/11 16:27:05;;;;;;;9.30;9.00;;;-1.70;99.90;;;;;;5078533;28;20244;-82
2022/12/11 16:36:11;;;;;;;8.93;8.67;;;-1.80;99.90;;;;;;5077950;28;20303;-80
2022/12/11 16:39:10;;;;;;;9.13;8.83;;;-1.80;99.90;;;;;;5047440;28;20227;-81
2022/12/11 16:41:53;;;;;;;8.60;8.40;;;-1.80;99.90;;;;;;5079022;28;20257;-80
2022/12/11 16:44:58;;;;;;;8.60;8.40;;;-1.80;99.90;;;;;;5079223;28;20300;-80
2022/12/11 16:47:29;;;;;;;9.00;8.70;;;-1.80;99.90;;;;;;5042509;28;20214;-79
2022/12/11 16:49:58;;;;;;;9.00;8.73;;;-1.80;99.90;;;;;;5096658;27;20307;-80
2022/12/11 16:52:31;;;;;;;9.13;8.83;;;-1.80;99.90;;;;;;5096518;28;20285;-79
2022/12/11 16:55:00;;;;;;;8.83;8.63;;;-1.80;99.90;;;;;;5099500;27;20230;-79
2022/12/11 16:57:34;;;;;;;8.80;8.60;;;-1.80;99.90;;;;;;5099295;27;20212;-79
2022/12/11 17:00:26;;;;;;;8.70;8.50;;;-1.80;99.90;;;;;;5099470;27;20206;-79